sensor_id;sensor_type;location;lat;lon;timestamp;temperature;humidity
31735;DHT22;18313;48.518;9.124;2023-05-03T00:02:24;8.90;99.90
31735;DHT22;18313;48.518;9.124;2023-05-03T00:04:52;8.80;99.90
31735;DHT22;18313;48.518;9.124;2023-05-03T00:07:20;8.70;99.90
31735;DHT22;18313;48.518;9.124;2023-05-03T00:09:48;8.60;99.90
31735;DHT22;18313;48.518;9.124;2023-05-03T00:12:16;8.70;99.90
31735;DHT22;18313;48.518;9.124;2023-05-03T00:14:44;8.80;99.90
31735;DHT22;18313;48.518;9.124;2023-05-03T00:17:12;8.80;99.90
31735;DHT22;18313;48.518;9.124;2023-05-03T00:19:39;8.80;99.90
31735;DHT22;18313;48.518;9.124;2023-05-03T00:22:06;8.70;99.90
31735;DHT22;18313;48.518;9.124;2023-05-03T00:24:34;8.60;99.90
31735;DHT22;18313;48.518;9.124;2023-05-03T00:27:03;8.50;99.90
31735;DHT22;18313;48.518;9.124;2023-05-03T00:29:30;8.40;99.90
31735;DHT22;18313;48.518;9.124;2023-05-03T00:31:58;8.40;99.90
31735;DHT22;18313;48.518;9.124;2023-05-03T00:34:26;8.40;99.90
31735;DHT22;18313;48.518;9.124;2023-05-03T00:36:53;8.30;99.90
31735;DHT22;18313;48.518;9.124;2023-05-03T00:39:20;8.30;99.90
31735;DHT22;18313;48.518;9.124;2023-05-03T00:41:47;8.30;99.90
31735;DHT22;18313;48.518;9.124;2023-05-03T00:44:15;8.30;99.90
31735;DHT22;18313;48.518;9.124;2023-05-03T00:46:42;8.20;99.90
31735;DHT22;18313;48.518;9.124;2023-05-03T00:49:09;8.10;99.90
31735;DHT22;18313;48.518;9.124;2023-05-03T00:51:36;8.00;99.90
31735;DHT22;18313;48.518;9.124;2023-05-03T00:54:04;8.00;99.90
31735;DHT22;18313;48.518;9.124;2023-05-03T00:56:31;7.90;99.90
31735;DHT22;18313;48.518;9.124;2023-05-03T00:59:16;7.90;99.90
31735;DHT22;18313;48.518;9.124;2023-05-03T01:01:50;7.90;99.90
31735;DHT22;18313;48.518;9.124;2023-05-03T01:04:19;7.80;99.90
31735;DHT22;18313;48.518;9.124;2023-05-03T01:15:11;7.80;99.90
31735;DHT22;18313;48.518;9.124;2023-05-03T01:17:49;7.90;99.90
31735;DHT22;18313;48.518;9.124;2023-05-03T01:20:21;8.00;99.90
31735;DHT22;18313;48.518;9.124;2023-05-03T01:25:24;7.90;99.90
31735;DHT22;18313;48.518;9.124;2023-05-03T01:27:55;7.70;99.90
31735;DHT22;18313;48.518;9.124;2023-05-03T01:30:25;7.70;99.90
31735;DHT22;18313;48.518;9.124;2023-05-03T01:35:59;7.70;99.90
31735;DHT22;18313;48.518;9.124;2023-05-03T01:38:30;7.60;99.90
31735;DHT22;18313;48.518;9.124;2023-05-03T01:41:01;7.60;99.90
31735;DHT22;18313;48.518;9.124;2023-05-03T01:43:33;7.60;99.90
31735;DHT22;18313;48.518;9.124;2023-05-03T01:46:02;7.50;99.90
31735;DHT22;18313;48.518;9.124;2023-05-03T01:48:29;7.50;99.90
31735;DHT22;18313;48.518;9.124;2023-05-03T01:50:56;7.50;99.90
31735;DHT22;18313;48.518;9.124;2023-05-03T01:53:24;7.50;99.90
31735;DHT22;18313;48.518;9.124;2023-05-03T01:55:51;7.40;99.90
31735;DHT22;18313;48.518;9.124;2023-05-03T01:58:18;7.40;99.90
31735;DHT22;18313;48.518;9.124;2023-05-03T02:00:46;7.40;99.90
31735;DHT22;18313;48.518;9.124;2023-05-03T02:03:14;7.30;99.90
31735;DHT22;18313;48.518;9.124;2023-05-03T02:05:41;7.20;99.90
31735;DHT22;18313;48.518;9.124;2023-05-03T02:08:09;7.20;99.90
31735;DHT22;18313;48.518;9.124;2023-05-03T02:10:36;7.10;99.90
31735;DHT22;18313;48.518;9.124;2023-05-03T02:13:03;7.10;99.90
31735;DHT22;18313;48.518;9.124;2023-05-03T02:15:30;7.00;99.90
31735;DHT22;18313;48.518;9.124;2023-05-03T02:17:57;7.00;99.90
31735;DHT22;18313;48.518;9.124;2023-05-03T02:20:28;6.90;99.90
31735;DHT22;18313;48.518;9.124;2023-05-03T02:22:58;6.90;99.90
31735;DHT22;18313;48.518;9.124;2023-05-03T02:25:25;6.90;99.90
31735;DHT22;18313;48.518;9.124;2023-05-03T02:27:53;6.90;99.90
31735;DHT22;18313;48.518;9.124;2023-05-03T02:30:20;6.90;99.90
31735;DHT22;18313;48.518;9.124;2023-05-03T02:32:48;6.90;99.90
31735;DHT22;18313;48.518;9.124;2023-05-03T02:35:15;6.90;99.90
31735;DHT22;18313;48.518;9.124;2023-05-03T02:37:42;6.90;99.90
31735;DHT22;18313;48.518;9.124;2023-05-03T02:40:10;6.90;99.90
31735;DHT22;18313;48.518;9.124;2023-05-03T02:42:39;6.90;99.90
31735;DHT22;18313;48.518;9.124;2023-05-03T02:45:06;6.90;99.90
31735;DHT22;18313;48.518;9.124;2023-05-03T02:47:34;6.90;99.90
31735;DHT22;18313;48.518;9.124;2023-05-03T02:50:01;6.80;99.90
31735;DHT22;18313;48.518;9.124;2023-05-03T02:52:29;6.80;99.90
31735;DHT22;18313;48.518;9.124;2023-05-03T02:54:56;6.80;99.90
31735;DHT22;18313;48.518;9.124;2023-05-03T02:57:23;6.70;99.90
31735;DHT22;18313;48.518;9.124;2023-05-03T02:59:51;6.60;99.90
31735;DHT22;18313;48.518;9.124;2023-05-03T03:02:18;6.80;99.90
31735;DHT22;18313;48.518;9.124;2023-05-03T03:04:47;6.70;99.90
31735;DHT22;18313;48.518;9.124;2023-05-03T03:07:15;6.70;99.90
31735;DHT22;18313;48.518;9.124;2023-05-03T03:09:42;6.60;99.90
31735;DHT22;18313;48.518;9.124;2023-05-03T03:12:09;6.60;99.90
31735;DHT22;18313;48.518;9.124;2023-05-03T03:14:36;6.50;99.90
31735;DHT22;18313;48.518;9.124;2023-05-03T03:17:07;6.50;99.90
31735;DHT22;18313;48.518;9.124;2023-05-03T03:19:37;6.40;99.90
31735;DHT22;18313;48.518;9.124;2023-05-03T03:22:05;6.40;99.90
31735;DHT22;18313;48.518;9.124;2023-05-03T03:24:32;6.30;99.90
31735;DHT22;18313;48.518;9.124;2023-05-03T03:26:59;6.30;99.90
31735;DHT22;18313;48.518;9.124;2023-05-03T03:29:30;6.20;99.90
31735;DHT22;18313;48.518;9.124;2023-05-03T03:31:58;6.20;99.90
31735;DHT22;18313;48.518;9.124;2023-05-03T03:34:25;6.10;99.90
31735;DHT22;18313;48.518;9.124;2023-05-03T03:36:53;6.10;99.90
31735;DHT22;18313;48.518;9.124;2023-05-03T03:39:20;6.10;99.90
31735;DHT22;18313;48.518;9.124;2023-05-03T03:41:47;6.10;99.90
31735;DHT22;18313;48.518;9.124;2023-05-03T03:44:14;6.10;99.90
31735;DHT22;18313;48.518;9.124;2023-05-03T03:46:41;6.10;99.90
31735;DHT22;18313;48.518;9.124;2023-05-03T03:49:08;6.00;99.90
31735;DHT22;18313;48.518;9.124;2023-05-03T03:51:35;6.10;99.90
31735;DHT22;18313;48.518;9.124;2023-05-03T03:54:03;6.10;99.90
31735;DHT22;18313;48.518;9.124;2023-05-03T03:56:31;6.10;99.90
31735;DHT22;18313;48.518;9.124;2023-05-03T03:58:58;6.10;99.90
31735;DHT22;18313;48.518;9.124;2023-05-03T04:01:25;6.10;99.90
31735;DHT22;18313;48.518;9.124;2023-05-03T04:03:53;6.20;99.90
31735;DHT22;18313;48.518;9.124;2023-05-03T04:06:21;6.10;99.90
31735;DHT22;18313;48.518;9.124;2023-05-03T04:08:48;6.20;99.90
31735;DHT22;18313;48.518;9.124;2023-05-03T04:11:16;6.20;99.90
31735;DHT22;18313;48.518;9.124;2023-05-03T04:13:43;6.30;99.90
31735;DHT22;18313;48.518;9.124;2023-05-03T04:16:10;6.30;99.90
31735;DHT22;18313;48.518;9.124;2023-05-03T04:18:37;6.40;99.90
31735;DHT22;18313;48.518;9.124;2023-05-03T04:21:05;6.50;99.90
31735;DHT22;18313;48.518;9.124;2023-05-03T04:23:32;6.60;99.90
31735;DHT22;18313;48.518;9.124;2023-05-03T04:25:59;6.60;99.90
31735;DHT22;18313;48.518;9.124;2023-05-03T04:28:28;6.70;99.90
31735;DHT22;18313;48.518;9.124;2023-05-03T04:30:56;6.80;99.90
31735;DHT22;18313;48.518;9.124;2023-05-03T04:33:25;6.80;99.90
31735;DHT22;18313;48.518;9.124;2023-05-03T04:35:53;6.80;99.90
31735;DHT22;18313;48.518;9.124;2023-05-03T04:38:20;6.90;99.90
31735;DHT22;18313;48.518;9.124;2023-05-03T04:40:48;6.90;99.90
31735;DHT22;18313;48.518;9.124;2023-05-03T04:43:15;7.10;99.90
31735;DHT22;18313;48.518;9.124;2023-05-03T04:45:42;7.10;99.90
31735;DHT22;18313;48.518;9.124;2023-05-03T04:48:11;7.20;99.90
31735;DHT22;18313;48.518;9.124;2023-05-03T04:50:38;7.20;99.90
31735;DHT22;18313;48.518;9.124;2023-05-03T04:53:06;7.30;99.90
31735;DHT22;18313;48.518;9.124;2023-05-03T04:55:33;7.40;99.90
31735;DHT22;18313;48.518;9.124;2023-05-03T04:58:01;7.50;99.90
31735;DHT22;18313;48.518;9.124;2023-05-03T05:00:27;7.70;99.90
31735;DHT22;18313;48.518;9.124;2023-05-03T05:02:55;7.90;99.90
31735;DHT22;18313;48.518;9.124;2023-05-03T05:05:24;7.90;99.90
31735;DHT22;18313;48.518;9.124;2023-05-03T05:07:51;7.90;99.90
31735;DHT22;18313;48.518;9.124;2023-05-03T05:10:19;7.90;99.90
31735;DHT22;18313;48.518;9.124;2023-05-03T05:12:46;7.90;99.90
31735;DHT22;18313;48.518;9.124;2023-05-03T05:15:13;8.00;99.90
31735;DHT22;18313;48.518;9.124;2023-05-03T05:17:40;8.00;99.90
31735;DHT22;18313;48.518;9.124;2023-05-03T05:20:08;7.90;99.90
31735;DHT22;18313;48.518;9.124;2023-05-03T05:22:38;7.80;99.90
31735;DHT22;18313;48.518;9.124;2023-05-03T05:25:06;7.80;99.90
31735;DHT22;18313;48.518;9.124;2023-05-03T05:27:34;7.80;99.90
31735;DHT22;18313;48.518;9.124;2023-05-03T05:30:01;7.80;99.90
31735;DHT22;18313;48.518;9.124;2023-05-03T05:32:30;8.00;99.90
31735;DHT22;18313;48.518;9.124;2023-05-03T05:34:57;8.10;99.90
31735;DHT22;18313;48.518;9.124;2023-05-03T05:37:25;8.20;99.90
31735;DHT22;18313;48.518;9.124;2023-05-03T05:39:54;8.30;99.90
31735;DHT22;18313;48.518;9.124;2023-05-03T05:42:21;8.50;99.90
31735;DHT22;18313;48.518;9.124;2023-05-03T05:44:48;8.60;99.90
31735;DHT22;18313;48.518;9.124;2023-05-03T05:47:15;8.70;99.90
31735;DHT22;18313;48.518;9.124;2023-05-03T05:49:43;8.80;99.90
31735;DHT22;18313;48.518;9.124;2023-05-03T05:52:10;8.90;99.90
31735;DHT22;18313;48.518;9.124;2023-05-03T05:54:37;9.00;99.90
31735;DHT22;18313;48.518;9.124;2023-05-03T05:57:04;9.00;99.90
31735;DHT22;18313;48.518;9.124;2023-05-03T05:59:32;9.10;99.90
31735;DHT22;18313;48.518;9.124;2023-05-03T06:01:59;9.10;99.90
31735;DHT22;18313;48.518;9.124;2023-05-03T06:04:26;9.20;99.90
31735;DHT22;18313;48.518;9.124;2023-05-03T06:06:55;9.20;99.90
31735;DHT22;18313;48.518;9.124;2023-05-03T06:09:22;9.20;99.90
31735;DHT22;18313;48.518;9.124;2023-05-03T06:11:50;9.30;99.90
31735;DHT22;18313;48.518;9.124;2023-05-03T06:14:18;9.40;99.90
31735;DHT22;18313;48.518;9.124;2023-05-03T06:16:46;9.50;99.90
31735;DHT22;18313;48.518;9.124;2023-05-03T06:19:14;9.60;99.90
31735;DHT22;18313;48.518;9.124;2023-05-03T06:21:41;9.60;99.90
31735;DHT22;18313;48.518;9.124;2023-05-03T06:24:08;9.70;99.90
31735;DHT22;18313;48.518;9.124;2023-05-03T06:26:35;9.70;99.90
31735;DHT22;18313;48.518;9.124;2023-05-03T06:29:02;9.70;99.90
31735;DHT22;18313;48.518;9.124;2023-05-03T06:31:29;9.60;99.90
31735;DHT22;18313;48.518;9.124;2023-05-03T06:33:57;9.60;99.90
31735;DHT22;18313;48.518;9.124;2023-05-03T06:36:24;9.60;99.90
31735;DHT22;18313;48.518;9.124;2023-05-03T06:38:51;9.70;99.90
31735;DHT22;18313;48.518;9.124;2023-05-03T06:41:18;9.80;99.90
31735;DHT22;18313;48.518;9.124;2023-05-03T06:43:45;9.80;99.90
31735;DHT22;18313;48.518;9.124;2023-05-03T06:46:12;9.90;99.90
31735;DHT22;18313;48.518;9.124;2023-05-03T06:48:39;9.90;99.90
31735;DHT22;18313;48.518;9.124;2023-05-03T06:51:06;10.00;99.90
31735;DHT22;18313;48.518;9.124;2023-05-03T06:53:33;9.80;99.90
31735;DHT22;18313;48.518;9.124;2023-05-03T06:56:01;9.80;99.90
31735;DHT22;18313;48.518;9.124;2023-05-03T06:58:29;9.70;99.90
31735;DHT22;18313;48.518;9.124;2023-05-03T07:00:56;9.70;99.90
31735;DHT22;18313;48.518;9.124;2023-05-03T07:03:23;9.60;99.90
31735;DHT22;18313;48.518;9.124;2023-05-03T07:05:51;9.60;99.90
31735;DHT22;18313;48.518;9.124;2023-05-03T07:08:17;9.70;99.90
31735;DHT22;18313;48.518;9.124;2023-05-03T07:10:44;9.70;99.90
31735;DHT22;18313;48.518;9.124;2023-05-03T07:13:11;9.50;99.90
31735;DHT22;18313;48.518;9.124;2023-05-03T07:15:40;9.40;99.90
31735;DHT22;18313;48.518;9.124;2023-05-03T07:18:07;9.50;99.90
31735;DHT22;18313;48.518;9.124;2023-05-03T07:20:34;9.50;99.90
31735;DHT22;18313;48.518;9.124;2023-05-03T07:23:02;9.70;99.90
31735;DHT22;18313;48.518;9.124;2023-05-03T07:25:29;10.00;99.90
31735;DHT22;18313;48.518;9.124;2023-05-03T07:27:57;10.20;99.90
31735;DHT22;18313;48.518;9.124;2023-05-03T07:30:24;10.40;99.90
31735;DHT22;18313;48.518;9.124;2023-05-03T07:32:52;10.50;99.90
31735;DHT22;18313;48.518;9.124;2023-05-03T07:35:20;10.50;99.90
31735;DHT22;18313;48.518;9.124;2023-05-03T07:37:48;10.60;99.90
31735;DHT22;18313;48.518;9.124;2023-05-03T07:40:15;10.80;99.90
31735;DHT22;18313;48.518;9.124;2023-05-03T07:42:43;10.90;99.90
31735;DHT22;18313;48.518;9.124;2023-05-03T07:45:10;11.10;99.90
31735;DHT22;18313;48.518;9.124;2023-05-03T07:47:37;11.20;99.90
31735;DHT22;18313;48.518;9.124;2023-05-03T07:50:06;11.20;99.90
31735;DHT22;18313;48.518;9.124;2023-05-03T07:52:37;11.20;99.90
31735;DHT22;18313;48.518;9.124;2023-05-03T07:55:05;11.10;99.90
31735;DHT22;18313;48.518;9.124;2023-05-03T07:57:33;11.10;99.90
31735;DHT22;18313;48.518;9.124;2023-05-03T08:00:00;11.20;99.90
31735;DHT22;18313;48.518;9.124;2023-05-03T08:02:27;11.40;99.90
31735;DHT22;18313;48.518;9.124;2023-05-03T08:04:55;11.60;99.90
31735;DHT22;18313;48.518;9.124;2023-05-03T08:07:22;11.70;99.90
31735;DHT22;18313;48.518;9.124;2023-05-03T08:09:49;11.70;99.90
31735;DHT22;18313;48.518;9.124;2023-05-03T08:12:19;11.70;99.90
31735;DHT22;18313;48.518;9.124;2023-05-03T08:14:46;11.80;99.90
31735;DHT22;18313;48.518;9.124;2023-05-03T08:17:13;11.70;99.90
31735;DHT22;18313;48.518;9.124;2023-05-03T08:19:40;11.60;99.90
31735;DHT22;18313;48.518;9.124;2023-05-03T08:22:07;11.60;99.90
31735;DHT22;18313;48.518;9.124;2023-05-03T08:24:37;11.80;99.90
31735;DHT22;18313;48.518;9.124;2023-05-03T08:27:07;12.00;99.90
31735;DHT22;18313;48.518;9.124;2023-05-03T08:29:35;12.30;99.90
31735;DHT22;18313;48.518;9.124;2023-05-03T08:32:05;12.40;99.90
31735;DHT22;18313;48.518;9.124;2023-05-03T08:34:33;12.60;99.90
31735;DHT22;18313;48.518;9.124;2023-05-03T08:37:00;12.90;99.90
31735;DHT22;18313;48.518;9.124;2023-05-03T08:39:27;13.10;99.90
31735;DHT22;18313;48.518;9.124;2023-05-03T08:41:56;13.30;99.90
31735;DHT22;18313;48.518;9.124;2023-05-03T08:44:28;13.40;99.90
31735;DHT22;18313;48.518;9.124;2023-05-03T08:46:55;13.70;99.90
31735;DHT22;18313;48.518;9.124;2023-05-03T08:49:23;13.90;99.90
31735;DHT22;18313;48.518;9.124;2023-05-03T08:51:50;14.20;99.90
31735;DHT22;18313;48.518;9.124;2023-05-03T08:54:18;14.40;99.90
31735;DHT22;18313;48.518;9.124;2023-05-03T08:56:47;14.70;99.90
31735;DHT22;18313;48.518;9.124;2023-05-03T08:59:15;15.10;99.90
31735;DHT22;18313;48.518;9.124;2023-05-03T09:01:43;15.20;99.90
31735;DHT22;18313;48.518;9.124;2023-05-03T09:04:11;15.30;99.90
31735;DHT22;18313;48.518;9.124;2023-05-03T09:06:38;15.40;99.90
31735;DHT22;18313;48.518;9.124;2023-05-03T09:09:06;15.60;99.90
31735;DHT22;18313;48.518;9.124;2023-05-03T09:11:36;15.80;99.90
31735;DHT22;18313;48.518;9.124;2023-05-03T09:14:11;16.00;99.90
31735;DHT22;18313;48.518;9.124;2023-05-03T09:16:40;16.30;99.90
31735;DHT22;18313;48.518;9.124;2023-05-03T09:19:08;16.50;99.90
31735;DHT22;18313;48.518;9.124;2023-05-03T09:21:44;16.60;99.90
31735;DHT22;18313;48.518;9.124;2023-05-03T09:24:20;16.70;99.90
31735;DHT22;18313;48.518;9.124;2023-05-03T09:26:49;16.80;99.90
31735;DHT22;18313;48.518;9.124;2023-05-03T09:29:32;16.90;99.90
31735;DHT22;18313;48.518;9.124;2023-05-03T09:32:04;16.90;99.90
31735;DHT22;18313;48.518;9.124;2023-05-03T09:34:32;17.20;99.90
31735;DHT22;18313;48.518;9.124;2023-05-03T09:37:00;17.50;99.90
31735;DHT22;18313;48.518;9.124;2023-05-03T09:39:27;17.90;99.90
31735;DHT22;18313;48.518;9.124;2023-05-03T09:41:55;18.20;99.90
31735;DHT22;18313;48.518;9.124;2023-05-03T09:44:41;18.30;99.90
31735;DHT22;18313;48.518;9.124;2023-05-03T09:47:10;17.90;99.90
31735;DHT22;18313;48.518;9.124;2023-05-03T09:49:37;17.70;99.90
31735;DHT22;18313;48.518;9.124;2023-05-03T09:52:06;17.50;99.90
31735;DHT22;18313;48.518;9.124;2023-05-03T09:54:34;17.70;99.90
31735;DHT22;18313;48.518;9.124;2023-05-03T09:57:05;17.80;99.90
31735;DHT22;18313;48.518;9.124;2023-05-03T09:59:37;17.80;99.90
31735;DHT22;18313;48.518;9.124;2023-05-03T10:02:06;18.00;99.90
31735;DHT22;18313;48.518;9.124;2023-05-03T10:04:53;18.30;99.90
31735;DHT22;18313;48.518;9.124;2023-05-03T10:07:24;18.30;99.90
31735;DHT22;18313;48.518;9.124;2023-05-03T10:09:54;18.20;99.90
31735;DHT22;18313;48.518;9.124;2023-05-03T10:12:24;18.30;99.90
31735;DHT22;18313;48.518;9.124;2023-05-03T10:14:54;18.50;99.90
31735;DHT22;18313;48.518;9.124;2023-05-03T10:17:26;18.70;99.90
31735;DHT22;18313;48.518;9.124;2023-05-03T10:20:35;18.90;99.90
31735;DHT22;18313;48.518;9.124;2023-05-03T10:25:34;19.20;99.80
31735;DHT22;18313;48.518;9.124;2023-05-03T10:28:06;19.10;99.60
31735;DHT22;18313;48.518;9.124;2023-05-03T10:30:36;18.60;98.80
31735;DHT22;18313;48.518;9.124;2023-05-03T10:35:41;18.50;99.90
31735;DHT22;18313;48.518;9.124;2023-05-03T10:38:24;18.60;99.60
31735;DHT22;18313;48.518;9.124;2023-05-03T10:40:52;18.40;99.90
31735;DHT22;18313;48.518;9.124;2023-05-03T10:46:08;19.40;98.70
31735;DHT22;18313;48.518;9.124;2023-05-03T10:48:38;19.90;99.90
31735;DHT22;18313;48.518;9.124;2023-05-03T10:51:30;20.00;98.20
31735;DHT22;18313;48.518;9.124;2023-05-03T10:54:03;19.70;98.10
31735;DHT22;18313;48.518;9.124;2023-05-03T10:56:30;19.70;99.40
31735;DHT22;18313;48.518;9.124;2023-05-03T10:58:57;20.10;99.60
31735;DHT22;18313;48.518;9.124;2023-05-03T11:01:26;20.40;98.00
31735;DHT22;18313;48.518;9.124;2023-05-03T11:04:01;20.40;97.90
31735;DHT22;18313;48.518;9.124;2023-05-03T11:06:38;20.60;97.30
31735;DHT22;18313;48.518;9.124;2023-05-03T11:09:08;20.70;97.10
31735;DHT22;18313;48.518;9.124;2023-05-03T11:11:39;21.00;95.50
31735;DHT22;18313;48.518;9.124;2023-05-03T11:14:08;20.60;95.70
31735;DHT22;18313;48.518;9.124;2023-05-03T11:16:35;20.20;96.90
31735;DHT22;18313;48.518;9.124;2023-05-03T11:19:03;20.20;95.80
31735;DHT22;18313;48.518;9.124;2023-05-03T11:21:31;20.40;97.20
31735;DHT22;18313;48.518;9.124;2023-05-03T11:24:00;20.60;95.60
31735;DHT22;18313;48.518;9.124;2023-05-03T11:26:27;20.60;95.80
31735;DHT22;18313;48.518;9.124;2023-05-03T11:28:54;20.50;97.20
31735;DHT22;18313;48.518;9.124;2023-05-03T11:31:22;20.70;95.40
31735;DHT22;18313;48.518;9.124;2023-05-03T11:33:49;20.70;96.40
31735;DHT22;18313;48.518;9.124;2023-05-03T11:36:16;20.40;95.20
31735;DHT22;18313;48.518;9.124;2023-05-03T11:38:44;19.90;96.10
31735;DHT22;18313;48.518;9.124;2023-05-03T11:41:15;19.70;97.00
31735;DHT22;18313;48.518;9.124;2023-05-03T11:43:44;19.70;97.00
31735;DHT22;18313;48.518;9.124;2023-05-03T11:46:20;19.70;97.20
31735;DHT22;18313;48.518;9.124;2023-05-03T11:48:48;19.80;97.10
31735;DHT22;18313;48.518;9.124;2023-05-03T11:51:23;19.60;96.90
31735;DHT22;18313;48.518;9.124;2023-05-03T11:53:51;20.10;97.20
31735;DHT22;18313;48.518;9.124;2023-05-03T11:56:18;20.20;96.60
31735;DHT22;18313;48.518;9.124;2023-05-03T11:58:51;20.60;95.70
31735;DHT22;18313;48.518;9.124;2023-05-03T12:01:19;20.70;95.00
31735;DHT22;18313;48.518;9.124;2023-05-03T12:03:57;20.60;95.70
31735;DHT22;18313;48.518;9.124;2023-05-03T12:06:25;20.50;95.40
31735;DHT22;18313;48.518;9.124;2023-05-03T12:08:54;19.90;96.00
31735;DHT22;18313;48.518;9.124;2023-05-03T12:11:22;19.40;96.60
31735;DHT22;18313;48.518;9.124;2023-05-03T12:14:00;19.60;97.20
31735;DHT22;18313;48.518;9.124;2023-05-03T12:16:46;20.00;96.30
31735;DHT22;18313;48.518;9.124;2023-05-03T12:19:42;20.20;96.00
31735;DHT22;18313;48.518;9.124;2023-05-03T12:22:18;20.50;95.70
31735;DHT22;18313;48.518;9.124;2023-05-03T12:24:52;20.70;94.30
31735;DHT22;18313;48.518;9.124;2023-05-03T12:27:19;20.30;95.90
31735;DHT22;18313;48.518;9.124;2023-05-03T12:29:49;20.40;95.30
31735;DHT22;18313;48.518;9.124;2023-05-03T12:32:17;20.70;94.30
31735;DHT22;18313;48.518;9.124;2023-05-03T12:34:48;20.20;94.50
31735;DHT22;18313;48.518;9.124;2023-05-03T12:37:17;20.20;94.70
31735;DHT22;18313;48.518;9.124;2023-05-03T12:39:48;20.20;94.90
31735;DHT22;18313;48.518;9.124;2023-05-03T12:42:29;20.50;95.30
31735;DHT22;18313;48.518;9.124;2023-05-03T12:44:59;21.00;94.20
31735;DHT22;18313;48.518;9.124;2023-05-03T12:47:30;20.80;93.90
31735;DHT22;18313;48.518;9.124;2023-05-03T12:50:04;20.80;93.30
31735;DHT22;18313;48.518;9.124;2023-05-03T12:52:32;20.80;93.10
31735;DHT22;18313;48.518;9.124;2023-05-03T12:55:05;21.00;94.00
31735;DHT22;18313;48.518;9.124;2023-05-03T12:57:37;21.20;92.80
31735;DHT22;18313;48.518;9.124;2023-05-03T13:00:08;21.30;93.00
31735;DHT22;18313;48.518;9.124;2023-05-03T13:02:40;21.60;91.70
31735;DHT22;18313;48.518;9.124;2023-05-03T13:05:28;21.40;91.10
31735;DHT22;18313;48.518;9.124;2023-05-03T13:08:02;20.90;92.00
31735;DHT22;18313;48.518;9.124;2023-05-03T13:10:35;20.70;93.10
31735;DHT22;18313;48.518;9.124;2023-05-03T13:13:03;20.60;92.30
31735;DHT22;18313;48.518;9.124;2023-05-03T13:15:30;20.60;93.20
31735;DHT22;18313;48.518;9.124;2023-05-03T13:17:57;20.70;92.60
31735;DHT22;18313;48.518;9.124;2023-05-03T13:20:27;20.40;92.90
31735;DHT22;18313;48.518;9.124;2023-05-03T13:22:54;20.50;92.60
31735;DHT22;18313;48.518;9.124;2023-05-03T13:25:21;20.70;93.10
31735;DHT22;18313;48.518;9.124;2023-05-03T13:27:49;20.80;92.10
31735;DHT22;18313;48.518;9.124;2023-05-03T13:30:20;21.20;94.00
31735;DHT22;18313;48.518;9.124;2023-05-03T13:32:47;21.50;91.40
31735;DHT22;18313;48.518;9.124;2023-05-03T13:35:16;22.00;92.50
31735;DHT22;18313;48.518;9.124;2023-05-03T13:37:43;22.20;91.80
31735;DHT22;18313;48.518;9.124;2023-05-03T13:40:11;22.10;91.20
31735;DHT22;18313;48.518;9.124;2023-05-03T13:42:40;22.10;90.40
31735;DHT22;18313;48.518;9.124;2023-05-03T13:45:08;21.70;90.30
31735;DHT22;18313;48.518;9.124;2023-05-03T13:47:35;21.40;90.70
31735;DHT22;18313;48.518;9.124;2023-05-03T13:50:23;21.40;91.20
31735;DHT22;18313;48.518;9.124;2023-05-03T13:52:50;21.50;90.60
31735;DHT22;18313;48.518;9.124;2023-05-03T13:55:17;21.50;91.10
31735;DHT22;18313;48.518;9.124;2023-05-03T13:57:44;21.80;91.10
31735;DHT22;18313;48.518;9.124;2023-05-03T14:00:11;21.80;90.60
31735;DHT22;18313;48.518;9.124;2023-05-03T14:02:39;22.10;91.50
31735;DHT22;18313;48.518;9.124;2023-05-03T14:05:06;22.30;90.70
31735;DHT22;18313;48.518;9.124;2023-05-03T14:07:34;22.50;90.50
31735;DHT22;18313;48.518;9.124;2023-05-03T14:10:01;22.50;88.80
31735;DHT22;18313;48.518;9.124;2023-05-03T14:12:29;22.20;88.80
31735;DHT22;18313;48.518;9.124;2023-05-03T14:14:56;21.90;88.80
31735;DHT22;18313;48.518;9.124;2023-05-03T14:17:23;22.10;90.40
31735;DHT22;18313;48.518;9.124;2023-05-03T14:19:50;21.90;90.20
31735;DHT22;18313;48.518;9.124;2023-05-03T14:22:18;21.60;90.00
31735;DHT22;18313;48.518;9.124;2023-05-03T14:24:45;21.50;90.70
31735;DHT22;18313;48.518;9.124;2023-05-03T14:27:12;21.90;91.40
31735;DHT22;18313;48.518;9.124;2023-05-03T14:29:40;21.90;90.00
31735;DHT22;18313;48.518;9.124;2023-05-03T14:32:07;21.80;90.50
31735;DHT22;18313;48.518;9.124;2023-05-03T14:34:34;21.80;89.90
31735;DHT22;18313;48.518;9.124;2023-05-03T14:37:01;22.00;90.10
31735;DHT22;18313;48.518;9.124;2023-05-03T14:39:28;22.50;91.00
31735;DHT22;18313;48.518;9.124;2023-05-03T14:41:56;22.50;89.50
31735;DHT22;18313;48.518;9.124;2023-05-03T14:44:23;22.00;88.60
31735;DHT22;18313;48.518;9.124;2023-05-03T14:46:51;21.60;88.50
31735;DHT22;18313;48.518;9.124;2023-05-03T14:49:19;21.30;91.00
31735;DHT22;18313;48.518;9.124;2023-05-03T14:51:46;21.60;90.20
31735;DHT22;18313;48.518;9.124;2023-05-03T14:54:13;22.20;88.30
31735;DHT22;18313;48.518;9.124;2023-05-03T14:56:41;22.60;89.40
31735;DHT22;18313;48.518;9.124;2023-05-03T14:59:08;23.00;88.80
31735;DHT22;18313;48.518;9.124;2023-05-03T15:01:35;23.10;87.90
31735;DHT22;18313;48.518;9.124;2023-05-03T15:04:03;22.80;86.30
31735;DHT22;18313;48.518;9.124;2023-05-03T15:06:33;22.70;87.40
31735;DHT22;18313;48.518;9.124;2023-05-03T15:09:05;22.30;86.70
31735;DHT22;18313;48.518;9.124;2023-05-03T15:11:34;22.20;87.30
31735;DHT22;18313;48.518;9.124;2023-05-03T15:14:01;22.10;86.50
31735;DHT22;18313;48.518;9.124;2023-05-03T15:16:28;22.20;88.70
31735;DHT22;18313;48.518;9.124;2023-05-03T15:18:55;22.40;88.50
31735;DHT22;18313;48.518;9.124;2023-05-03T15:21:22;21.90;87.20
31735;DHT22;18313;48.518;9.124;2023-05-03T15:23:50;21.50;86.70
31735;DHT22;18313;48.518;9.124;2023-05-03T15:26:17;21.40;86.70
31735;DHT22;18313;48.518;9.124;2023-05-03T15:28:44;21.40;87.30
31735;DHT22;18313;48.518;9.124;2023-05-03T15:31:12;21.60;85.90
31735;DHT22;18313;48.518;9.124;2023-05-03T15:33:41;21.40;85.60
31735;DHT22;18313;48.518;9.124;2023-05-03T15:36:10;21.50;85.60
31735;DHT22;18313;48.518;9.124;2023-05-03T15:38:37;21.60;84.00
31735;DHT22;18313;48.518;9.124;2023-05-03T15:41:05;21.50;86.80
31735;DHT22;18313;48.518;9.124;2023-05-03T15:43:33;21.80;86.20
31735;DHT22;18313;48.518;9.124;2023-05-03T15:46:01;22.10;84.20
31735;DHT22;18313;48.518;9.124;2023-05-03T15:48:28;22.10;84.80
31735;DHT22;18313;48.518;9.124;2023-05-03T15:50:55;22.30;84.10
31735;DHT22;18313;48.518;9.124;2023-05-03T15:53:22;22.40;81.80
31735;DHT22;18313;48.518;9.124;2023-05-03T15:55:54;22.20;81.90
31735;DHT22;18313;48.518;9.124;2023-05-03T15:58:25;22.40;83.80
31735;DHT22;18313;48.518;9.124;2023-05-03T16:00:54;22.10;82.50
31735;DHT22;18313;48.518;9.124;2023-05-03T16:03:23;22.00;81.00
31735;DHT22;18313;48.518;9.124;2023-05-03T16:05:50;21.80;82.50
31735;DHT22;18313;48.518;9.124;2023-05-03T16:08:17;22.00;86.40
31735;DHT22;18313;48.518;9.124;2023-05-03T16:10:45;22.00;81.70